Time;durP1;ratioP1;P1;durP2;ratioP2;P2;SDS_P1;SDS_P2;PMS_P1;PMS_P2;Temp;Humidity;BMP_temperature;BMP_pressure;BME280_temperature;BME280_humidity;BME280_pressure;Samples;Min_cycle;Max_cycle;Signal;HPM_P1;HPM_P2
2022/03/21 00:00:22;;;;;;;13.07;9.75;;;7.50;50.70;;;;;;5011762;28;20037;-44
2022/03/21 00:02:50;;;;;;;14.63;9.77;;;7.40;51.30;;;;;;5009936;28;20414;-44
2022/03/21 00:05:17;;;;;;;13.43;10.18;;;7.50;50.40;;;;;;5011606;28;20025;-43
2022/03/21 00:07:43;;;;;;;11.70;9.18;;;7.40;50.40;;;;;;5010846;28;20473;-44
2022/03/21 00:10:11;;;;;;;11.23;8.63;;;7.50;50.60;;;;;;5010533;28;20112;-47
2022/03/21 00:12:39;;;;;;;15.85;10.38;;;7.50;51.40;;;;;;5010840;28;20040;-44
2022/03/21 00:15:13;;;;;;;12.45;9.98;;;7.50;50.90;;;;;;5010386;28;20444;-44
2022/03/21 00:17:43;;;;;;;14.10;9.88;;;7.50;51.10;;;;;;5009338;28;20340;-44
2022/03/21 00:20:12;;;;;;;18.73;10.63;;;7.50;50.70;;;;;;5009535;28;20026;-45
2022/03/21 00:22:39;;;;;;;15.13;9.20;;;7.50;50.80;;;;;;4993288;28;20041;-45
2022/03/21 00:25:09;;;;;;;15.15;8.88;;;7.60;50.90;;;;;;5010650;28;20116;-44
2022/03/21 00:27:35;;;;;;;;;;;7.60;50.90;;;;;;5010826;28;20345;-43
2022/03/21 00:30:04;;;;;;;12.23;9.15;;;7.60;51.00;;;;;;5009388;28;19918;-45
2022/03/21 00:32:32;;;;;;;13.65;9.00;;;7.50;51.90;;;;;;4994179;28;20032;-45
2022/03/21 00:35:01;;;;;;;10.10;8.70;;;7.50;52.30;;;;;;5010110;28;20053;-45
2022/03/21 00:37:28;;;;;;;14.70;8.80;;;7.40;52.00;;;;;;5009927;28;20112;-44
2022/03/21 00:39:57;;;;;;;11.27;9.02;;;7.40;52.10;;;;;;5010314;28;20030;-44
2022/03/21 00:42:22;;;;;;;16.60;8.93;;;7.40;51.40;;;;;;5010108;28;20116;-45
2022/03/21 00:44:49;;;;;;;10.60;8.50;;;7.50;51.10;;;;;;5011571;28;20490;-44
2022/03/21 00:47:16;;;;;;;13.88;9.55;;;7.50;51.00;;;;;;5011235;28;20037;-46
2022/03/21 00:49:44;;;;;;;12.57;9.32;;;7.50;50.80;;;;;;5010779;28;20037;-44
2022/03/21 00:52:11;;;;;;;12.45;8.52;;;7.50;51.10;;;;;;5009626;28;20769;-45
2022/03/21 00:54:36;;;;;;;13.05;9.40;;;7.60;51.10;;;;;;5010179;28;20041;-44
2022/03/21 00:57:04;;;;;;;13.57;9.15;;;7.50;51.10;;;;;;5010614;28;20022;-44
2022/03/21 00:59:31;;;;;;;11.10;8.60;;;7.50;51.30;;;;;;5010125;28;20109;-44
2022/03/21 01:01:57;;;;;;;11.65;8.45;;;7.50;51.50;;;;;;5010622;28;20088;-44
2022/03/21 01:04:23;;;;;;;15.70;9.10;;;7.50;51.60;;;;;;5010569;28;20042;-45
2022/03/21 01:06:51;;;;;;;12.00;8.27;;;7.50;51.60;;;;;;5010622;28;20100;-45
2022/03/21 01:09:19;;;;;;;9.93;8.10;;;7.40;51.60;;;;;;5011254;28;20030;-44
2022/03/21 01:11:46;;;;;;;10.80;7.95;;;7.40;51.30;;;;;;5011037;28;20367;-44
2022/03/21 01:14:13;;;;;;;10.68;8.18;;;7.40;51.60;;;;;;4992873;28;20471;-45
2022/03/21 01:16:39;;;;;;;15.25;8.27;;;7.40;51.60;;;;;;5010614;28;20036;-47
2022/03/21 01:19:16;;;;;;;11.93;9.25;;;7.30;52.00;;;;;;5010383;28;20238;-44
2022/03/21 01:21:43;;;;;;;13.30;8.40;;;7.30;51.50;;;;;;5009238;28;20030;-43
2022/03/21 01:24:12;;;;;;;16.10;8.98;;;7.40;51.50;;;;;;5010511;28;20034;-46
2022/03/21 01:26:40;;;;;;;13.18;8.95;;;7.40;52.10;;;;;;5010713;28;20038;-43
2022/03/21 01:29:05;;;;;;;11.60;8.18;;;7.40;51.50;;;;;;5010248;28;20095;-46
2022/03/21 01:31:34;;;;;;;10.93;8.35;;;7.40;50.90;;;;;;5009888;28;20038;-47
2022/03/21 01:34:00;;;;;;;10.20;7.97;;;7.40;50.50;;;;;;5010039;28;20099;-46
2022/03/21 01:36:27;;;;;;;14.07;9.10;;;7.50;50.50;;;;;;5010421;28;20030;-47
2022/03/21 01:38:56;;;;;;;15.75;8.48;;;7.50;50.40;;;;;;5010497;28;20025;-47
2022/03/21 01:41:21;;;;;;;12.63;8.25;;;7.50;50.90;;;;;;5009316;28;20038;-43
2022/03/21 01:44:18;;;;;;;11.52;8.45;;;7.50;50.70;;;;;;5009209;28;20045;-46
2022/03/21 01:46:45;;;;;;;11.57;7.93;;;7.60;51.10;;;;;;5010755;28;20105;-44
2022/03/21 01:49:13;;;;;;;10.65;7.47;;;7.50;51.30;;;;;;5009065;28;20119;-45
2022/03/21 01:51:41;;;;;;;11.80;9.15;;;7.50;51.40;;;;;;5008364;28;20096;-45
2022/03/21 01:56:55;;;;;;;12.57;8.25;;;7.40;51.80;;;;;;5010241;28;20511;-45
2022/03/21 01:59:21;;;;;;;12.65;8.75;;;7.30;52.20;;;;;;5008790;28;20037;-44
2022/03/21 02:01:47;;;;;;;13.95;8.95;;;7.30;52.20;;;;;;5007107;28;20121;-44
2022/03/21 02:04:16;;;;;;;10.52;8.00;;;7.40;52.30;;;;;;5008273;28;20033;-47
2022/03/21 02:06:43;;;;;;;12.60;8.47;;;7.40;52.70;;;;;;4992570;28;20045;-44
2022/03/21 02:09:12;;;;;;;12.43;8.38;;;7.30;52.70;;;;;;5009496;28;20641;-44
2022/03/21 02:11:42;;;;;;;11.35;8.43;;;7.40;51.50;;;;;;5009787;28;20351;-44
2022/03/21 02:14:10;;;;;;;12.00;8.93;;;7.40;51.40;;;;;;5008433;28;20058;-44
2022/03/21 02:16:41;;;;;;;11.07;8.02;;;7.40;51.40;;;;;;5009913;28;20033;-45
2022/03/21 02:19:34;;;;;;;13.02;8.60;;;7.40;51.80;;;;;;5008689;28;20087;-45
2022/03/21 02:22:15;;;;;;;11.85;8.18;;;7.40;51.30;;;;;;5009287;28;20052;-44
2022/03/21 02:24:47;;;;;;;9.90;8.25;;;7.40;51.40;;;;;;5009705;28;20328;-44
2022/03/21 02:27:17;;;;;;;13.90;8.77;;;7.40;51.50;;;;;;5009989;28;20026;-43
2022/03/21 02:29:44;;;;;;;12.35;8.50;;;7.40;51.80;;;;;;5008989;28;20037;-44
2022/03/21 02:32:11;;;;;;;11.38;7.95;;;7.40;51.80;;;;;;4976265;28;20375;-44
2022/03/21 02:34:40;;;;;;;14.05;7.95;;;7.40;51.80;;;;;;5009483;28;20424;-46
2022/03/21 02:37:15;;;;;;;11.32;7.90;;;7.40;52.00;;;;;;5009855;28;20053;-44
2022/03/21 02:39:42;;;;;;;12.10;8.02;;;7.30;52.10;;;;;;5008636;28;20436;-43
2022/03/21 02:42:10;;;;;;;10.65;8.13;;;7.30;52.00;;;;;;4992736;28;20036;-44
2022/03/21 02:44:38;;;;;;;13.32;8.95;;;7.20;52.30;;;;;;5008364;28;20741;-48
2022/03/21 02:47:06;;;;;;;9.52;7.60;;;7.20;52.60;;;;;;5008789;28;20053;-46
2022/03/21 02:49:38;;;;;;;14.35;8.38;;;7.10;53.50;;;;;;5008238;28;20061;-44
2022/03/21 02:52:06;;;;;;;13.73;8.75;;;7.00;53.40;;;;;;5008027;28;20344;-45
2022/03/21 02:54:36;;;;;;;13.70;9.20;;;7.00;53.10;;;;;;5009202;28;20022;-45
2022/03/21 02:57:03;;;;;;;10.65;7.95;;;7.00;53.10;;;;;;5009414;28;20026;-43
2022/03/21 02:59:30;;;;;;;12.80;8.40;;;6.90;53.20;;;;;;5008037;28;20344;-44
2022/03/21 03:01:57;;;;;;;15.57;8.50;;;6.90;53.10;;;;;;5007479;28;20034;-46
2022/03/21 03:04:25;;;;;;;11.65;7.68;;;6.90;53.70;;;;;;5008364;28;20359;-45
2022/03/21 03:06:51;;;;;;;15.43;8.43;;;7.00;53.40;;;;;;5008296;28;20459;-44
2022/03/21 03:09:19;;;;;;;13.00;7.85;;;6.90;53.60;;;;;;5009197;28;20041;-44
2022/03/21 03:11:45;;;;;;;10.02;7.50;;;6.90;52.90;;;;;;5008096;28;20040;-44
2022/03/21 03:14:14;;;;;;;10.13;6.90;;;7.00;52.80;;;;;;5007278;28;20058;-45
2022/03/21 03:16:43;;;;;;;10.38;7.40;;;7.00;53.10;;;;;;5010499;28;20026;-43
2022/03/21 03:19:08;;;;;;;11.93;7.30;;;7.00;52.90;;;;;;5012919;28;20044;-45
2022/03/21 03:21:40;;;;;;;13.40;8.25;;;7.10;53.10;;;;;;5012618;28;20645;-44
2022/03/21 03:24:11;;;;;;;10.63;7.90;;;7.10;53.10;;;;;;4979661;28;20049;-44
2022/03/21 03:26:40;;;;;;;14.07;9.95;;;7.10;53.10;;;;;;5011661;28;20041;-44
2022/03/21 03:29:08;;;;;;;10.95;8.35;;;7.00;53.10;;;;;;5012495;28;20739;-46
2022/03/21 03:31:36;;;;;;;13.13;8.10;;;7.00;53.50;;;;;;5012177;28;20042;-44
2022/03/21 03:34:04;;;;;;;12.00;8.27;;;7.00;53.30;;;;;;5012975;28;20321;-44
2022/03/21 03:36:40;;;;;;;13.18;8.15;;;7.00;53.20;;;;;;5012580;28;20030;-47
2022/03/21 03:39:07;;;;;;;12.52;8.18;;;7.00;53.20;;;;;;5010437;28;20034;-44
2022/03/21 03:41:32;;;;;;;14.02;8.43;;;7.00;53.10;;;;;;5011420;28;20030;-46
2022/03/21 03:43:58;;;;;;;10.50;8.05;;;7.00;53.20;;;;;;5012254;28;20029;-44
2022/03/21 03:46:25;;;;;;;10.32;8.35;;;7.00;53.00;;;;;;5011206;28;20371;-44
2022/03/21 03:48:54;;;;;;;11.27;7.20;;;7.00;53.10;;;;;;5011579;28;20117;-44
2022/03/21 03:51:22;;;;;;;11.68;8.27;;;7.00;53.40;;;;;;5012501;28;20435;-47
2022/03/21 03:53:50;;;;;;;9.93;7.07;;;6.90;53.10;;;;;;5012266;28;20431;-45
2022/03/21 03:56:17;;;;;;;12.43;8.60;;;6.90;53.50;;;;;;5011803;28;20108;-44
2022/03/21 03:58:44;;;;;;;10.18;7.70;;;7.00;53.00;;;;;;4995103;28;20470;-45
2022/03/21 04:01:13;;;;;;;11.05;8.48;;;7.00;52.90;;;;;;5011429;28;20104;-47
2022/03/21 04:03:47;;;;;;;16.05;8.57;;;7.00;52.80;;;;;;5011891;28;20105;-44
2022/03/21 04:06:24;;;;;;;12.18;7.78;;;7.00;53.10;;;;;;5010692;28;20033;-45
2022/03/21 04:08:52;;;;;;;12.75;7.57;;;7.00;52.80;;;;;;5004608;28;20030;-45
2022/03/21 04:11:23;;;;;;;10.88;8.23;;;7.00;53.00;;;;;;5010938;28;20092;-44
2022/03/21 04:13:53;;;;;;;11.13;8.25;;;6.90;53.00;;;;;;5010881;28;20022;-45
2022/03/21 04:16:20;;;;;;;12.30;8.23;;;6.90;53.20;;;;;;5011847;28;20026;-45
2022/03/21 04:18:48;;;;;;;12.13;8.48;;;6.90;53.30;;;;;;5010719;28;20112;-45
2022/03/21 04:21:16;;;;;;;10.77;8.10;;;6.90;53.80;;;;;;5011743;28;20036;-45
2022/03/21 04:23:44;;;;;;;11.13;8.23;;;6.90;53.60;;;;;;5011822;28;20072;-45
2022/03/21 04:26:12;;;;;;;11.95;8.23;;;6.90;53.60;;;;;;5011361;28;20042;-45
2022/03/21 04:28:42;;;;;;;12.88;8.23;;;6.80;53.50;;;;;;5011212;28;20034;-45
2022/03/21 04:31:09;;;;;;;12.80;8.50;;;6.80;53.40;;;;;;5010171;28;20032;-45
2022/03/21 04:33:35;;;;;;;10.23;8.25;;;6.70;53.50;;;;;;5011378;28;20018;-45
2022/03/21 04:36:06;;;;;;;14.00;8.27;;;6.80;53.50;;;;;;5011047;28;20131;-44
2022/03/21 04:38:32;;;;;;;13.05;9.35;;;6.80;53.80;;;;;;5011169;28;20026;-45
2022/03/21 04:40:59;;;;;;;10.90;9.80;;;6.80;54.10;;;;;;4993908;28;20038;-45
2022/03/21 04:43:26;;;;;;;12.13;8.05;;;6.70;54.20;;;;;;5010848;28;20038;-46
2022/03/21 04:45:53;;;;;;;13.32;8.63;;;6.70;54.60;;;;;;5009601;28;20451;-44
2022/03/21 04:48:21;;;;;;;11.30;8.23;;;6.70;54.50;;;;;;5010947;28;20038;-47
2022/03/21 04:50:48;;;;;;;13.32;9.60;;;6.60;54.90;;;;;;5009400;28;20049;-46
2022/03/21 04:53:17;;;;;;;11.82;8.68;;;6.60;55.00;;;;;;5010519;28;20375;-45
2022/03/21 04:55:44;;;;;;;13.20;8.60;;;6.50;55.40;;;;;;5010506;28;20029;-44
2022/03/21 04:58:12;;;;;;;11.73;8.27;;;6.50;55.50;;;;;;5010407;28;20018;-45
2022/03/21 05:00:39;;;;;;;12.35;9.25;;;6.40;55.70;;;;;;5010023;28;20021;-44
2022/03/21 05:03:11;;;;;;;12.07;8.75;;;6.30;55.70;;;;;;5009733;28;20077;-47
2022/03/21 05:05:37;;;;;;;10.55;8.20;;;6.30;56.30;;;;;;5008087;28;20021;-46
2022/03/21 05:08:04;;;;;;;10.98;8.68;;;6.20;56.60;;;;;;5009148;28;20022;-45
2022/03/21 05:10:31;;;;;;;12.60;8.65;;;6.20;56.80;;;;;;5008811;28;20052;-45
2022/03/21 05:13:00;;;;;;;13.70;9.07;;;6.30;56.70;;;;;;5009591;28;20022;-45
2022/03/21 05:15:28;;;;;;;15.27;10.00;;;6.20;56.90;;;;;;5010034;28;20059;-45
2022/03/21 05:17:55;;;;;;;12.07;9.60;;;6.20;57.10;;;;;;5010296;28;20045;-45
2022/03/21 05:20:25;;;;;;;11.82;9.30;;;6.20;57.80;;;;;;5010759;28;20025;-45
2022/03/21 05:31:15;;;;;;;12.85;8.68;;;6.00;58.40;;;;;;5010162;28;20118;-45
2022/03/21 05:36:28;;;;;;;12.43;9.07;;;6.00;58.40;;;;;;5010422;28;20036;-44
2022/03/21 05:38:56;;;;;;;12.10;8.52;;;5.90;59.10;;;;;;5009742;28;20037;-45
2022/03/21 05:41:24;;;;;;;13.43;9.05;;;5.90;59.70;;;;;;4976468;28;20471;-44
2022/03/21 05:43:52;;;;;;;15.00;9.80;;;5.80;59.40;;;;;;4993352;28;20037;-44
2022/03/21 05:46:22;;;;;;;12.23;8.75;;;5.80;59.30;;;;;;5009200;28;20030;-44
2022/03/21 05:49:03;;;;;;;14.02;9.70;;;5.80;59.80;;;;;;4993497;28;20046;-45
2022/03/21 05:51:43;;;;;;;12.52;9.05;;;5.80;60.00;;;;;;4993932;28;20397;-46
2022/03/21 05:54:13;;;;;;;13.20;9.45;;;5.70;59.90;;;;;;5010046;28;20022;-45
2022/03/21 05:56:40;;;;;;;;;;;5.80;60.10;;;;;;5009259;28;20034;-45
2022/03/21 06:01:53;;;;;;;11.60;8.73;;;5.80;60.90;;;;;;5009229;28;20037;-46
2022/03/21 06:04:23;;;;;;;13.55;10.27;;;5.80;60.40;;;;;;5009923;28;20037;-46
2022/03/21 06:06:49;;;;;;;13.73;10.10;;;5.80;61.50;;;;;;5008143;28;20049;-46
2022/03/21 06:09:16;;;;;;;13.05;9.18;;;5.80;61.50;;;;;;5007148;28;20432;-45
2022/03/21 06:11:48;;;;;;;17.73;9.43;;;5.90;60.90;;;;;;5008767;28;20052;-44
2022/03/21 06:14:16;;;;;;;13.02;9.38;;;6.00;60.20;;;;;;5009563;28;20050;-47
2022/03/21 06:16:44;;;;;;;14.35;9.80;;;6.00;59.60;;;;;;5009172;28;20030;-44
2022/03/21 06:19:12;;;;;;;12.13;8.25;;;6.10;59.00;;;;;;5011465;28;20069;-44
2022/03/21 06:21:38;;;;;;;12.15;8.55;;;6.10;59.20;;;;;;5008401;28;20029;-45
2022/03/21 06:24:05;;;;;;;12.75;9.13;;;6.20;58.80;;;;;;5008489;28;20087;-44
2022/03/21 06:26:36;;;;;;;12.50;10.00;;;6.20;58.60;;;;;;5009167;28;20053;-45
2022/03/21 06:29:05;;;;;;;13.77;9.73;;;6.20;58.90;;;;;;5008208;28;20572;-47
2022/03/21 06:31:31;;;;;;;12.93;9.25;;;6.20;58.70;;;;;;5006552;28;20022;-45
2022/03/21 06:33:57;;;;;;;12.88;9.48;;;6.10;58.90;;;;;;5008752;28;20066;-44
2022/03/21 06:36:24;;;;;;;12.90;9.32;;;6.20;59.20;;;;;;5008424;28;20040;-45
2022/03/21 06:38:51;;;;;;;13.27;10.07;;;6.20;59.50;;;;;;5007355;28;20028;-44
2022/03/21 06:41:20;;;;;;;14.43;9.20;;;6.10;59.80;;;;;;5008967;28;20025;-44
2022/03/21 06:43:47;;;;;;;12.57;10.10;;;6.20;59.70;;;;;;5008974;28;20399;-45
2022/03/21 06:46:15;;;;;;;13.90;9.48;;;6.10;59.80;;;;;;5008310;28;20034;-44
2022/03/21 06:48:42;;;;;;;13.13;9.23;;;6.10;59.80;;;;;;5007330;28;20352;-45
2022/03/21 06:51:10;;;;;;;16.63;9.77;;;6.10;60.00;;;;;;5010497;28;20030;-45
2022/03/21 06:53:38;;;;;;;15.45;9.98;;;6.10;60.10;;;;;;5012109;28;20048;-44
2022/03/21 06:56:10;;;;;;;12.45;8.95;;;6.10;59.90;;;;;;5011735;28;20100;-49
2022/03/21 06:58:36;;;;;;;13.63;9.05;;;6.10;60.20;;;;;;5011027;28;20753;-45
2022/03/21 07:01:02;;;;;;;13.75;9.63;;;6.10;60.50;;;;;;5008834;28;20042;-45
2022/03/21 07:03:32;;;;;;;15.65;9.95;;;6.10;60.20;;;;;;5011432;28;20175;-46
2022/03/21 07:05:59;;;;;;;11.93;9.88;;;6.10;60.40;;;;;;5011518;28;20479;-46
2022/03/21 07:08:26;;;;;;;13.68;9.40;;;6.10;60.60;;;;;;5010557;28;20034;-47
2022/03/21 07:10:53;;;;;;;17.35;9.88;;;6.10;60.40;;;;;;5011938;28;20179;-44
2022/03/21 07:13:19;;;;;;;13.82;9.45;;;6.20;59.70;;;;;;5012085;28;20418;-46
2022/03/21 07:15:45;;;;;;;14.95;9.70;;;6.20;60.00;;;;;;5012193;28;20085;-47
2022/03/21 07:18:12;;;;;;;14.73;10.63;;;6.20;59.90;;;;;;5012872;28;20025;-44
2022/03/21 07:20:43;;;;;;;13.13;9.57;;;6.30;60.20;;;;;;5012155;28;20506;-44
2022/03/21 07:23:11;;;;;;;12.57;8.80;;;6.40;59.70;;;;;;5011663;28;20029;-44
2022/03/21 07:25:38;;;;;;;17.35;10.52;;;6.50;59.50;;;;;;5011931;28;20041;-44
2022/03/21 07:28:06;;;;;;;13.20;10.05;;;6.70;58.70;;;;;;5012559;28;20029;-44
2022/03/21 07:30:33;;;;;;;15.05;10.55;;;6.90;58.10;;;;;;5011157;28;20030;-44
2022/03/21 07:33:00;;;;;;;11.65;9.27;;;7.20;57.50;;;;;;5003488;28;20018;-46
2022/03/21 07:35:27;;;;;;;12.68;9.88;;;7.40;57.20;;;;;;4992304;28;20052;-44
2022/03/21 07:37:57;;;;;;;15.70;10.55;;;7.60;57.00;;;;;;5012014;28;20034;-45
2022/03/21 07:40:25;;;;;;;14.32;9.80;;;7.90;57.40;;;;;;5009223;28;20030;-45
2022/03/21 07:42:53;;;;;;;14.18;10.70;;;8.00;57.50;;;;;;5011322;28;20459;-45
2022/03/21 07:48:08;;;;;;;13.30;10.63;;;8.70;55.30;;;;;;5012116;28;20509;-46
2022/03/21 07:50:41;;;;;;;12.80;10.85;;;9.00;53.50;;;;;;5012020;28;20692;-45
2022/03/21 07:53:09;;;;;;;17.65;10.65;;;9.40;52.60;;;;;;5011860;28;20029;-45
2022/03/21 07:55:37;;;;;;;16.50;10.90;;;9.60;52.70;;;;;;5011041;28;20431;-45
2022/03/21 07:58:03;;;;;;;13.15;10.43;;;9.90;51.20;;;;;;5007848;28;20025;-47
2022/03/21 08:00:31;;;;;;;14.73;10.55;;;10.20;51.00;;;;;;4989294;28;20034;-45
2022/03/21 08:02:59;;;;;;;14.18;10.07;;;10.50;48.50;;;;;;4991224;28;20121;-45
2022/03/21 08:05:28;;;;;;;14.57;11.13;;;10.70;47.50;;;;;;4986267;28;20046;-43
2022/03/21 08:07:55;;;;;;;14.40;11.80;;;10.90;46.20;;;;;;5007664;28;20026;-46
2022/03/21 08:10:24;;;;;;;13.18;11.10;;;11.10;46.00;;;;;;5008414;28;20283;-44
2022/03/21 08:12:55;;;;;;;15.23;10.38;;;11.30;46.20;;;;;;5007860;28;20045;-45
2022/03/21 08:15:23;;;;;;;16.05;10.75;;;11.50;44.40;;;;;;5007534;28;20054;-44
2022/03/21 08:17:59;;;;;;;12.20;10.48;;;11.50;45.80;;;;;;4990674;28;20727;-47
2022/03/21 08:20:43;;;;;;;15.73;11.18;;;11.70;45.30;;;;;;5008846;28;20030;-47
2022/03/21 08:23:13;;;;;;;12.77;10.68;;;11.80;44.20;;;;;;5006492;28;20026;-48
2022/03/21 08:25:49;;;;;;;13.20;10.32;;;12.10;42.60;;;;;;5006912;28;20447;-45
2022/03/21 08:28:20;;;;;;;17.58;11.25;;;12.20;42.70;;;;;;5005103;28;20040;-45
2022/03/21 08:30:45;;;;;;;14.45;10.27;;;12.20;42.80;;;;;;5006622;28;20041;-47
2022/03/21 08:33:17;;;;;;;15.57;11.85;;;12.40;42.60;;;;;;5007700;28;20022;-45
2022/03/21 08:35:46;;;;;;;13.95;10.68;;;12.60;41.60;;;;;;5005707;28;20030;-45
2022/03/21 08:38:13;;;;;;;15.95;11.75;;;12.70;42.70;;;;;;5007463;28;20033;-48
2022/03/21 08:40:39;;;;;;;16.60;11.40;;;12.70;43.00;;;;;;5007769;28;20026;-45
2022/03/21 08:43:05;;;;;;;15.23;10.93;;;12.90;42.40;;;;;;5007284;28;20313;-45
2022/03/21 08:45:33;;;;;;;14.30;11.32;;;12.80;41.80;;;;;;4989125;28;20363;-44
2022/03/21 08:48:00;;;;;;;14.77;11.40;;;12.60;43.10;;;;;;5007202;28;20030;-44
2022/03/21 08:50:27;;;;;;;14.13;11.38;;;12.80;41.50;;;;;;5002576;28;20037;-48
2022/03/21 08:52:56;;;;;;;15.75;11.50;;;12.90;42.50;;;;;;5007147;28;20033;-45
2022/03/21 08:55:23;;;;;;;13.05;10.80;;;13.20;41.20;;;;;;5006474;28;20046;-44
2022/03/21 08:57:56;;;;;;;12.95;11.27;;;13.30;41.30;;;;;;5006908;28;20030;-46
2022/03/21 09:00:23;;;;;;;13.52;12.13;;;13.30;42.40;;;;;;5007012;28;20108;-45
2022/03/21 09:02:52;;;;;;;14.27;11.38;;;13.40;41.80;;;;;;5006430;28;20038;-45
2022/03/21 09:05:21;;;;;;;13.88;11.80;;;13.50;41.30;;;;;;5006147;28;20455;-49
2022/03/21 09:07:47;;;;;;;12.65;10.95;;;13.30;42.00;;;;;;5005879;28;20479;-49
2022/03/21 09:10:15;;;;;;;15.82;12.13;;;13.50;44.10;;;;;;5006999;28;20452;-46
2022/03/21 09:12:43;;;;;;;18.13;12.23;;;13.40;43.30;;;;;;5006470;28;20034;-47
2022/03/21 09:15:11;;;;;;;15.55;11.10;;;13.30;43.00;;;;;;5000902;28;20123;-45
2022/03/21 09:17:38;;;;;;;13.77;11.57;;;13.50;42.00;;;;;;4987201;28;20030;-45
2022/03/21 09:20:07;;;;;;;14.52;11.80;;;13.50;42.60;;;;;;5004816;28;20073;-45
2022/03/21 09:22:35;;;;;;;13.70;12.10;;;13.50;42.30;;;;;;5004813;28;20033;-49
2022/03/21 09:25:04;;;;;;;14.57;11.77;;;13.60;41.50;;;;;;5006502;28;20045;-47
2022/03/21 09:27:32;;;;;;;13.65;11.90;;;13.90;40.80;;;;;;5006802;28;20022;-44
2022/03/21 09:29:59;;;;;;;14.45;12.38;;;14.00;42.50;;;;;;5006684;28;20107;-49
2022/03/21 09:32:27;;;;;;;15.13;12.07;;;14.20;43.20;;;;;;5006769;28;20033;-46
2022/03/21 09:34:59;;;;;;;14.05;12.38;;;13.90;41.90;;;;;;5006423;28;20113;-44
2022/03/21 09:37:26;;;;;;;14.05;12.55;;;14.00;41.30;;;;;;5005466;28;20040;-44
2022/03/21 09:39:53;;;;;;;13.88;12.05;;;14.10;41.40;;;;;;5006460;28;20047;-46
2022/03/21 09:42:20;;;;;;;15.32;11.90;;;14.20;41.60;;;;;;5005802;28;20076;-43
2022/03/21 09:44:52;;;;;;;13.77;12.10;;;14.50;42.10;;;;;;5007361;28;20042;-46
2022/03/21 09:50:21;;;;;;;16.63;12.73;;;14.50;40.90;;;;;;4991024;28;20120;-45
2022/03/21 09:52:50;;;;;;;14.18;12.82;;;14.40;42.70;;;;;;5005047;28;20043;-43
2022/03/21 09:55:17;;;;;;;16.48;13.07;;;14.40;42.40;;;;;;5005670;28;20036;-42
2022/03/21 09:57:42;;;;;;;19.60;12.73;;;14.60;41.90;;;;;;4988583;28;20404;-42
2022/03/21 10:00:11;;;;;;;17.50;14.15;;;14.60;43.20;;;;;;5006065;28;20088;-42
2022/03/21 10:02:38;;;;;;;15.27;11.95;;;14.80;40.80;;;;;;5004844;28;20025;-43
2022/03/21 10:05:05;;;;;;;16.15;13.40;;;14.70;40.50;;;;;;5005709;28;20095;-44
2022/03/21 10:07:31;;;;;;;15.63;12.55;;;14.70;40.60;;;;;;5006939;28;20032;-44
2022/03/21 10:10:16;;;;;;;14.45;12.57;;;14.90;41.60;;;;;;5004631;28;20034;-45
2022/03/21 10:12:43;;;;;;;15.30;12.43;;;14.80;43.80;;;;;;5005349;28;20367;-42
2022/03/21 10:15:12;;;;;;;17.08;12.75;;;14.90;42.60;;;;;;5006161;28;20042;-43
2022/03/21 10:17:40;;;;;;;15.95;12.55;;;14.70;41.60;;;;;;5004712;28;20435;-43
2022/03/21 10:20:14;;;;;;;14.52;13.02;;;15.10;42.80;;;;;;5006523;28;20057;-42
2022/03/21 10:22:45;;;;;;;15.57;12.32;;;15.20;41.30;;;;;;5006998;28;20101;-43
2022/03/21 10:25:16;;;;;;;;;;;15.20;43.40;;;;;;5007360;28;20490;-43
2022/03/21 10:27:45;;;;;;;14.15;11.73;;;15.30;41.90;;;;;;5010434;28;19913;-42
2022/03/21 10:30:31;;;;;;;14.15;12.75;;;15.10;43.00;;;;;;5009471;28;20032;-42
2022/03/21 10:32:59;;;;;;;14.30;11.52;;;15.30;41.80;;;;;;5009953;28;20092;-44
2022/03/21 10:35:30;;;;;;;17.17;10.93;;;15.00;42.60;;;;;;5025619;28;20523;-42
2022/03/21 10:38:00;;;;;;;12.25;10.15;;;15.10;42.40;;;;;;4992073;28;20459;-44
2022/03/21 10:40:44;;;;;;;13.63;10.38;;;15.40;41.20;;;;;;5001595;28;20109;-46
2022/03/21 10:43:16;;;;;;;12.77;10.93;;;15.20;42.90;;;;;;5010189;28;20366;-45
2022/03/21 10:45:51;;;;;;;12.93;11.30;;;15.40;44.00;;;;;;4977304;28;20046;-43
2022/03/21 10:48:29;;;;;;;15.85;12.32;;;15.40;42.50;;;;;;5009782;28;20076;-43
2022/03/21 10:50:59;;;;;;;17.15;13.07;;;15.40;44.10;;;;;;5010220;28;20057;-42
2022/03/21 10:53:38;;;;;;;16.85;13.18;;;15.60;42.50;;;;;;5010302;28;20037;-42
2022/03/21 10:56:08;;;;;;;14.90;13.07;;;15.40;42.40;;;;;;5010219;28;20113;-44
2022/03/21 10:58:47;;;;;;;15.25;12.20;;;15.40;43.00;;;;;;4993186;28;20034;-45
2022/03/21 11:01:16;;;;;;;17.08;13.50;;;15.30;44.10;;;;;;5007727;28;20517;-42
2022/03/21 11:03:43;;;;;;;14.80;13.20;;;15.40;42.10;;;;;;5009409;28;20037;-44
2022/03/21 11:06:13;;;;;;;16.27;13.80;;;15.20;43.10;;;;;;4991764;28;20400;-43
2022/03/21 11:08:43;;;;;;;14.68;12.80;;;15.00;43.50;;;;;;5005753;28;20108;-44
2022/03/21 11:11:12;;;;;;;14.65;13.15;;;15.20;43.00;;;;;;5006093;28;20038;-42
2022/03/21 11:13:40;;;;;;;15.20;13.60;;;15.10;42.40;;;;;;5008269;28;20034;-42
2022/03/21 11:16:07;;;;;;;17.00;13.13;;;15.20;43.50;;;;;;5008067;28;20038;-42
2022/03/21 11:18:33;;;;;;;19.10;14.30;;;15.40;41.80;;;;;;5005790;28;20029;-42
2022/03/21 11:21:02;;;;;;;15.10;13.48;;;15.40;42.60;;;;;;5009974;28;20056;-42
2022/03/21 11:23:30;;;;;;;19.13;15.13;;;15.30;43.70;;;;;;5009745;28;20026;-42
2022/03/21 11:26:12;;;;;;;19.20;14.88;;;15.40;42.40;;;;;;5009652;28;20351;-42
2022/03/21 11:29:09;;;;;;;15.65;13.73;;;15.50;41.80;;;;;;5009332;28;20122;-42
2022/03/21 11:32:14;;;;;;;17.08;14.65;;;15.60;42.20;;;;;;5006520;28;20026;-42
2022/03/21 11:34:59;;;;;;;18.02;13.98;;;15.50;42.20;;;;;;5009489;28;20098;-42
2022/03/21 11:37:38;;;;;;;20.63;15.57;;;15.60;42.00;;;;;;5007642;28;20096;-42
2022/03/21 11:40:30;;;;;;;19.45;15.23;;;15.60;41.20;;;;;;4987032;28;20034;-42
2022/03/21 11:43:22;;;;;;;18.15;14.68;;;15.60;41.80;;;;;;5009483;28;20034;-41
2022/03/21 11:45:54;;;;;;;18.00;14.50;;;15.60;41.00;;;;;;5002554;28;20128;-42
2022/03/21 11:48:23;;;;;;;20.33;14.80;;;15.30;42.00;;;;;;5004378;28;20037;-42
2022/03/21 11:51:00;;;;;;;16.17;13.95;;;15.00;41.50;;;;;;5007809;28;20065;-44
2022/03/21 11:53:32;;;;;;;19.80;13.88;;;14.80;43.50;;;;;;5006695;28;20363;-44
2022/03/21 11:56:01;;;;;;;16.02;12.50;;;14.50;44.50;;;;;;5006728;28;20026;-45
2022/03/21 11:58:52;;;;;;;16.40;13.73;;;14.50;43.50;;;;;;5005351;28;20096;-46
2022/03/21 12:01:24;;;;;;;17.38;13.77;;;14.40;43.00;;;;;;5007139;28;20104;-45
2022/03/21 12:03:55;;;;;;;14.85;12.20;;;14.20;43.20;;;;;;5007462;28;20045;-48
2022/03/21 12:06:31;;;;;;;19.15;14.13;;;14.40;44.60;;;;;;5007829;28;20042;-44
2022/03/21 12:08:59;;;;;;;18.05;14.90;;;14.40;42.80;;;;;;5008450;28;20033;-47
2022/03/21 12:11:48;;;;;;;21.13;15.73;;;14.20;42.90;;;;;;5007247;28;20057;-46
2022/03/21 12:14:44;;;;;;;18.98;14.75;;;14.30;43.20;;;;;;5007099;28;20376;-48
2022/03/21 12:17:15;;;;;;;20.52;14.98;;;14.30;41.00;;;;;;5006801;28;20121;-44
2022/03/21 12:20:01;;;;;;;19.30;15.82;;;14.10;41.60;;;;;;5006829;28;20057;-44
2022/03/21 12:22:30;;;;;;;18.27;15.23;;;14.00;42.10;;;;;;5005576;28;20034;-45
2022/03/21 12:25:23;;;;;;;17.55;14.68;;;14.10;42.70;;;;;;5007633;28;20184;-44
2022/03/21 12:28:17;;;;;;;18.65;16.63;;;14.20;42.60;;;;;;5007642;28;20034;-46
2022/03/21 12:30:48;;;;;;;25.52;17.42;;;14.30;42.30;;;;;;5006523;28;20030;-45
2022/03/21 12:33:35;;;;;;;22.42;17.10;;;14.30;42.80;;;;;;5007774;28;20165;-46
2022/03/21 12:36:05;;;;;;;26.73;16.38;;;14.20;42.00;;;;;;5006972;28;20590;-46
2022/03/21 12:38:34;;;;;;;22.75;17.63;;;14.10;43.60;;;;;;5007942;28;20041;-45
2022/03/21 12:41:02;;;;;;;23.30;17.38;;;14.00;44.80;;;;;;5004054;28;20030;-48
2022/03/21 12:43:33;;;;;;;22.13;17.90;;;14.10;45.40;;;;;;5007198;28;20042;-44
2022/03/21 12:46:04;;;;;;;;;;;13.90;43.50;;;;;;5009138;28;20045;-45
2022/03/21 12:48:30;;;;;;;20.25;17.30;;;13.80;44.70;;;;;;5007011;28;20343;-45
2022/03/21 12:50:58;;;;;;;19.73;16.98;;;13.50;44.50;;;;;;5007173;28;20030;-44
2022/03/21 12:53:48;;;;;;;33.00;19.10;;;13.40;46.70;;;;;;5007284;28;20045;-44
2022/03/21 12:56:18;;;;;;;18.48;16.40;;;13.40;47.30;;;;;;5005586;28;20131;-45
2022/03/21 12:58:49;;;;;;;19.58;16.73;;;13.30;46.50;;;;;;4989999;28;20092;-45
2022/03/21 13:01:16;;;;;;;24.75;17.10;;;13.20;46.10;;;;;;5006222;28;20030;-45
2022/03/21 13:03:43;;;;;;;23.75;17.98;;;13.20;46.40;;;;;;5006409;28;20073;-44
2022/03/21 13:11:50;;;;;;;21.23;17.45;;;13.10;46.90;;;;;;5007148;28;20072;-47
2022/03/21 13:14:20;;;;;;;21.85;18.45;;;13.00;47.10;;;;;;5004378;28;20567;-47
2022/03/21 13:17:10;;;;;;;20.30;18.10;;;13.00;46.50;;;;;;4989671;28;20065;-46
2022/03/21 13:19:42;;;;;;;23.55;18.00;;;12.90;48.10;;;;;;5005332;28;20321;-45
2022/03/21 13:22:09;;;;;;;20.95;17.58;;;12.80;48.40;;;;;;4973756;28;20030;-45